createdAt,value
2022-09-06T00:00:41.000Z,34.43
2022-09-06T00:03:09.000Z,32.13
2022-09-06T00:05:35.000Z,31.7
2022-09-06T00:08:01.000Z,33.25
2022-09-06T00:10:26.000Z,33.88
2022-09-06T00:12:52.000Z,34.6
2022-09-06T00:15:19.000Z,36.38
2022-09-06T00:17:45.000Z,37.03
2022-09-06T00:20:10.000Z,38.98
2022-09-06T00:22:35.000Z,39.9
2022-09-06T00:25:17.000Z,41.18
2022-09-06T00:27:27.000Z,41.43
2022-09-06T00:29:53.000Z,42.87
2022-09-06T00:34:44.000Z,42.23
2022-09-06T00:37:10.000Z,40.38
2022-09-06T00:39:37.000Z,42
2022-09-06T00:42:05.000Z,42.2
2022-09-06T00:44:29.000Z,44.25
2022-09-06T00:46:56.000Z,45.48
2022-09-06T00:49:23.000Z,46.9
2022-09-06T00:51:49.000Z,49.13
2022-09-06T00:54:14.000Z,49.38
2022-09-06T00:56:42.000Z,49.5
2022-09-06T00:59:07.000Z,50.6
2022-09-06T01:01:33.000Z,47.2
2022-09-06T01:03:59.000Z,48.17
2022-09-06T01:06:26.000Z,47.03
2022-09-06T01:08:52.000Z,47.4
2022-09-06T01:11:18.000Z,47
2022-09-06T01:13:44.000Z,46.88
2022-09-06T01:16:10.000Z,44.18
2022-09-06T01:18:35.000Z,44.08
2022-09-06T01:21:01.000Z,42.93
2022-09-06T01:23:28.000Z,43.3
2022-09-06T01:25:53.000Z,42.2
2022-09-06T01:28:19.000Z,40.48
2022-09-06T01:30:45.000Z,34.23
2022-09-06T01:33:11.000Z,32.3
2022-09-06T01:35:38.000Z,31.77
2022-09-06T01:38:06.000Z,28.8
2022-09-06T01:40:29.000Z,29.98
2022-09-06T01:42:56.000Z,29.72
2022-09-06T01:45:22.000Z,31.33
2022-09-06T01:47:47.000Z,30.9
2022-09-06T01:50:13.000Z,29.77
2022-09-06T01:52:38.000Z,31.3
2022-09-06T01:55:04.000Z,30.23
2022-09-06T01:57:29.000Z,31.82
2022-09-06T01:59:55.000Z,31.15
2022-09-06T02:02:22.000Z,30.85
2022-09-06T02:04:47.000Z,31.57
2022-09-06T02:07:14.000Z,31.33
2022-09-06T02:09:40.000Z,30.35
2022-09-06T02:12:05.000Z,32.23
2022-09-06T02:14:30.000Z,31.03
2022-09-06T02:16:56.000Z,31.4
2022-09-06T02:19:22.000Z,30.5
2022-09-06T02:21:47.000Z,31.03
2022-09-06T02:24:15.000Z,30.8
2022-09-06T02:26:39.000Z,32.05
2022-09-06T02:29:07.000Z,31.45
2022-09-06T02:31:32.000Z,31.52
2022-09-06T02:33:57.000Z,31.8
2022-09-06T02:36:23.000Z,30.72
2022-09-06T02:38:49.000Z,31.48
2022-09-06T02:41:15.000Z,31
2022-09-06T02:43:40.000Z,30.95
2022-09-06T02:46:08.000Z,32.15
2022-09-06T02:48:33.000Z,31.77
2022-09-06T02:50:59.000Z,32
2022-09-06T02:53:26.000Z,32.85
2022-09-06T02:55:52.000Z,31.6
2022-09-06T02:58:16.000Z,31.63
2022-09-06T03:00:43.000Z,31.93
2022-09-06T03:03:08.000Z,32.35
2022-09-06T03:05:37.000Z,32.25
2022-09-06T03:07:59.000Z,32.6
2022-09-06T03:10:26.000Z,32.87
2022-09-06T03:12:51.000Z,32.55
2022-09-06T03:15:18.000Z,32.98
2022-09-06T03:17:44.000Z,31.97
2022-09-06T03:20:10.000Z,32.28
2022-09-06T03:22:37.000Z,33.53
2022-09-06T03:25:02.000Z,33.38
2022-09-06T03:27:27.000Z,31.82
2022-09-06T03:29:53.000Z,32.98
2022-09-06T03:32:19.000Z,34.8
2022-09-06T03:34:45.000Z,36.9
2022-09-06T03:39:38.000Z,38.77
2022-09-06T03:42:04.000Z,37.37
2022-09-06T03:44:29.000Z,37.15
2022-09-06T03:46:55.000Z,35.9
2022-09-06T03:49:22.000Z,34.37
2022-09-06T03:51:48.000Z,33.5
2022-09-06T03:54:13.000Z,31.83
2022-09-06T03:56:38.000Z,28.83
2022-09-06T03:59:05.000Z,28.87
2022-09-06T04:01:31.000Z,27.58
2022-09-06T04:03:57.000Z,30.62
2022-09-06T04:06:23.000Z,26.57
2022-09-06T04:08:48.000Z,24.02
2022-09-06T04:11:14.000Z,27.3
2022-09-06T04:13:42.000Z,24.2
2022-09-06T04:16:08.000Z,26.3
2022-09-06T04:18:34.000Z,27.93
2022-09-06T04:21:00.000Z,25.3
2022-09-06T04:23:25.000Z,27.3
2022-09-06T04:25:51.000Z,27.3
2022-09-06T04:28:17.000Z,25.2
2022-09-06T04:30:43.000Z,23.8
2022-09-06T04:33:09.000Z,23.42
2022-09-06T04:35:36.000Z,23.1
2022-09-06T04:38:00.000Z,21.87
2022-09-06T04:40:26.000Z,22.52
2022-09-06T04:42:52.000Z,22.5
2022-09-06T04:45:19.000Z,23.9
2022-09-06T04:47:44.000Z,26.9
2022-09-06T04:50:11.000Z,28.47
2022-09-06T04:52:37.000Z,34.3
2022-09-06T04:55:02.000Z,37.73
2022-09-06T04:57:28.000Z,35.85
2022-09-06T04:59:54.000Z,42.3
2022-09-06T05:02:21.000Z,39.6
2022-09-06T05:04:46.000Z,43.9
2022-09-06T05:07:11.000Z,47.5
2022-09-06T05:09:37.000Z,46.65
2022-09-06T05:12:03.000Z,44.45
2022-09-06T05:14:29.000Z,46.65
2022-09-06T05:16:55.000Z,46.77
2022-09-06T05:19:22.000Z,46.27
2022-09-06T05:21:48.000Z,45.35
2022-09-06T05:24:14.000Z,47.58
2022-09-06T05:26:40.000Z,46.2
2022-09-06T05:29:08.000Z,45.43
2022-09-06T05:31:34.000Z,44.63
2022-09-06T05:33:58.000Z,44.23
2022-09-06T05:36:24.000Z,44.8
2022-09-06T05:38:50.000Z,44.23
2022-09-06T05:41:16.000Z,43.73
2022-09-06T05:43:42.000Z,42.9
2022-09-06T05:46:09.000Z,42
2022-09-06T05:48:36.000Z,42.75
2022-09-06T05:51:01.000Z,42.83
2022-09-06T05:53:26.000Z,41.95
2022-09-06T05:55:52.000Z,41.05
2022-09-06T05:58:22.000Z,41.65
2022-09-06T06:00:48.000Z,42.85
2022-09-06T06:03:14.000Z,41.7
2022-09-06T06:05:40.000Z,40.3
2022-09-06T06:08:07.000Z,38.83
2022-09-06T06:10:32.000Z,40.25
2022-09-06T06:12:58.000Z,37.53
2022-09-06T06:15:25.000Z,36.08
2022-09-06T06:17:50.000Z,37.33
2022-09-06T06:20:17.000Z,37.58
2022-09-06T06:22:46.000Z,37.23
2022-09-06T06:25:11.000Z,37.23
2022-09-06T06:27:40.000Z,37.6
2022-09-06T06:30:10.000Z,36.6
2022-09-06T06:32:32.000Z,35.7
2022-09-06T06:34:57.000Z,35.73
2022-09-06T06:37:23.000Z,36.8
2022-09-06T06:39:49.000Z,33.83
2022-09-06T06:42:16.000Z,34.55
2022-09-06T06:44:45.000Z,33.2
2022-09-06T06:47:11.000Z,29.6
2022-09-06T06:49:37.000Z,26.52
2022-09-06T06:52:03.000Z,27.25
2022-09-06T06:54:30.000Z,25.97
2022-09-06T06:56:54.000Z,27.37
2022-09-06T06:59:21.000Z,27.63
2022-09-06T07:01:48.000Z,25.03
2022-09-06T07:04:13.000Z,27.3
2022-09-06T07:09:05.000Z,21.7
2022-09-06T07:11:31.000Z,23.95
2022-09-06T07:13:57.000Z,21.27
2022-09-06T07:16:23.000Z,21.13
2022-09-06T07:18:48.000Z,19.7
2022-09-06T07:21:16.000Z,20.37
2022-09-06T07:23:40.000Z,19.5
2022-09-06T07:26:06.000Z,18.73
2022-09-06T07:28:33.000Z,17.92
2022-09-06T07:35:58.000Z,17.07
2022-09-06T07:38:24.000Z,17.57
2022-09-06T07:40:50.000Z,17.82
2022-09-06T07:43:17.000Z,17.05
2022-09-06T07:45:43.000Z,17.32
2022-09-06T07:48:10.000Z,18.1
2022-09-06T07:53:01.000Z,18.87
2022-09-06T07:55:27.000Z,18.65
2022-09-06T07:57:53.000Z,18.1
2022-09-06T08:00:21.000Z,18.8
2022-09-06T08:02:45.000Z,18.07
2022-09-06T08:10:06.000Z,16.02
2022-09-06T08:12:30.000Z,15.38
2022-09-06T08:14:57.000Z,16.2
2022-09-06T08:17:25.000Z,15.88
2022-09-06T08:19:49.000Z,16.4
2022-09-06T08:22:17.000Z,15.5
2022-09-06T08:24:44.000Z,16.5
2022-09-06T08:27:08.000Z,16.75
2022-09-06T08:29:34.000Z,16
2022-09-06T08:32:00.000Z,17
2022-09-06T08:34:26.000Z,17.9
2022-09-06T08:36:56.000Z,18.3
2022-09-06T08:39:23.000Z,18.27
2022-09-06T08:41:48.000Z,18.35
2022-09-06T08:46:40.000Z,19.9
2022-09-06T08:49:06.000Z,18.57
2022-09-06T08:51:32.000Z,19.2
2022-09-06T08:53:58.000Z,20
2022-09-06T08:56:24.000Z,19.75
2022-09-06T08:58:50.000Z,19.9
2022-09-06T09:01:16.000Z,19.3
2022-09-06T09:03:42.000Z,18.2
2022-09-06T09:06:08.000Z,18.15
2022-09-06T09:08:35.000Z,17.75
2022-09-06T09:11:00.000Z,17.8
2022-09-06T09:13:25.000Z,17.77
2022-09-06T09:15:52.000Z,18.15
2022-09-06T09:18:19.000Z,17.73
2022-09-06T09:20:44.000Z,18.9
2022-09-06T09:23:10.000Z,20.23
2022-09-06T09:25:36.000Z,20.4
2022-09-06T09:28:02.000Z,20.77
2022-09-06T09:32:56.000Z,20.12
2022-09-06T09:35:22.000Z,20
2022-09-06T09:37:48.000Z,19.8
2022-09-06T09:40:14.000Z,19.4
2022-09-06T09:42:40.000Z,19.67
2022-09-06T09:45:08.000Z,20.7
2022-09-06T09:47:33.000Z,20.82
2022-09-06T09:49:58.000Z,19.75
2022-09-06T09:52:24.000Z,18.55
2022-09-06T09:54:50.000Z,19.07
2022-09-06T09:57:15.000Z,19.13
2022-09-06T09:59:43.000Z,19.1
2022-09-06T10:02:07.000Z,19.25
2022-09-06T10:06:58.000Z,19.33
2022-09-06T10:09:24.000Z,20.15
2022-09-06T10:11:50.000Z,19.75
2022-09-06T10:14:16.000Z,18.65
2022-09-06T10:16:42.000Z,18.8
2022-09-06T10:19:10.000Z,18.77
2022-09-06T10:21:35.000Z,19.43
2022-09-06T10:23:59.000Z,19.15
2022-09-06T10:26:26.000Z,19.05
2022-09-06T10:28:51.000Z,20.23
2022-09-06T10:31:18.000Z,20.37
2022-09-06T10:33:44.000Z,21.52
2022-09-06T10:36:10.000Z,21.03
2022-09-06T10:38:37.000Z,26.77
2022-09-06T10:41:02.000Z,24.57
2022-09-06T10:43:31.000Z,24.85
2022-09-06T10:45:57.000Z,24.23
2022-09-06T10:48:23.000Z,23.18
2022-09-06T10:50:50.000Z,24.35
2022-09-06T10:53:16.000Z,24.97
2022-09-06T10:55:40.000Z,24.2
2022-09-06T10:58:06.000Z,25
2022-09-06T11:00:32.000Z,24.83
2022-09-06T11:05:24.000Z,24.98
2022-09-06T11:10:15.000Z,26.45
2022-09-06T11:12:42.000Z,28.83
2022-09-06T11:15:10.000Z,30.32
2022-09-06T11:17:35.000Z,33.15
2022-09-06T11:20:00.000Z,34.4
2022-09-06T11:22:26.000Z,32.78
2022-09-06T11:24:52.000Z,33.43
2022-09-06T11:27:18.000Z,32.3
2022-09-06T11:29:44.000Z,31.65
2022-09-06T11:32:09.000Z,39.45
2022-09-06T11:34:36.000Z,37.85
2022-09-06T11:37:02.000Z,36.4
2022-09-06T11:41:55.000Z,31.6
2022-09-06T11:44:20.000Z,30.82
2022-09-06T11:46:46.000Z,29.15
2022-09-06T11:49:12.000Z,28.95
2022-09-06T11:51:38.000Z,30.27
2022-09-06T11:54:04.000Z,31.97
2022-09-06T11:56:30.000Z,34.13
2022-09-06T12:01:28.000Z,32.33
2022-09-06T12:06:20.000Z,30.92
2022-09-06T12:08:46.000Z,31.07
2022-09-06T12:11:11.000Z,30
2022-09-06T12:13:38.000Z,32.53
2022-09-06T12:16:04.000Z,32.25
2022-09-06T12:18:30.000Z,32.85
2022-09-06T12:20:56.000Z,31.75
2022-09-06T12:23:22.000Z,33.33
2022-09-06T12:25:48.000Z,32.53
2022-09-06T12:28:15.000Z,34.2
2022-09-06T12:30:40.000Z,33.55
2022-09-06T12:33:07.000Z,34.38
2022-09-06T12:37:58.000Z,33.25
2022-09-06T12:40:24.000Z,32.3
2022-09-06T12:42:51.000Z,31.25
2022-09-06T12:45:17.000Z,30.35
2022-09-06T12:47:50.000Z,30.2
2022-09-06T12:50:10.000Z,30.32
2022-09-06T12:52:36.000Z,29.48
2022-09-06T12:55:02.000Z,30.3
2022-09-06T12:57:28.000Z,29.82
2022-09-06T12:59:54.000Z,30.07
2022-09-06T13:02:20.000Z,29.4
2022-09-06T13:04:46.000Z,28.93
2022-09-06T13:07:12.000Z,29.47
2022-09-06T13:09:38.000Z,29.1
2022-09-06T13:14:29.000Z,28.98
2022-09-06T13:16:55.000Z,29.02
2022-09-06T13:19:21.000Z,28.7
2022-09-06T13:21:48.000Z,29.1
2022-09-06T13:24:14.000Z,29.6
2022-09-06T13:26:39.000Z,29.25
2022-09-06T13:29:05.000Z,30.05
2022-09-06T13:31:31.000Z,29.85
2022-09-06T13:33:57.000Z,28.8
2022-09-06T13:36:26.000Z,29.82
2022-09-06T13:38:50.000Z,30.08
2022-09-06T13:41:15.000Z,29.87
2022-09-06T13:43:42.000Z,29.63
2022-09-06T13:46:09.000Z,29.55
2022-09-06T13:48:35.000Z,30.5
2022-09-06T13:53:34.000Z,29.87
2022-09-06T13:55:58.000Z,30.13
2022-09-06T13:58:24.000Z,32.27
2022-09-06T14:00:50.000Z,32.37
2022-09-06T14:03:16.000Z,32.73
2022-09-06T14:05:43.000Z,33.28
2022-09-06T14:08:08.000Z,32.78
2022-09-06T14:10:34.000Z,32.43
2022-09-06T14:13:03.000Z,33.75
2022-09-06T14:15:28.000Z,32.43
2022-09-06T14:17:54.000Z,33.63
2022-09-06T14:20:21.000Z,33.3
2022-09-06T14:22:46.000Z,33.2
2022-09-06T14:25:14.000Z,33.67
2022-09-06T14:27:39.000Z,34.83
2022-09-06T14:30:08.000Z,34.4
2022-09-06T14:32:31.000Z,34.48
2022-09-06T14:34:56.000Z,35.5
2022-09-06T14:37:23.000Z,36.6
2022-09-06T14:39:49.000Z,35.52
2022-09-06T14:42:14.000Z,35.73
2022-09-06T14:44:41.000Z,35.17
2022-09-06T14:47:07.000Z,34.85
2022-09-06T14:49:33.000Z,33.35
2022-09-06T14:51:59.000Z,32.95
2022-09-06T14:54:24.000Z,31.87
2022-09-06T14:56:52.000Z,32.6
2022-09-06T14:59:19.000Z,32.63
2022-09-06T15:01:46.000Z,31.82
2022-09-06T15:04:13.000Z,30.62
2022-09-06T15:06:39.000Z,30.1
2022-09-06T15:09:05.000Z,30.65
2022-09-06T15:11:30.000Z,30.82
2022-09-06T15:13:56.000Z,30
2022-09-06T15:16:22.000Z,29.75
2022-09-06T15:18:49.000Z,30.62
2022-09-06T15:21:16.000Z,29.32
2022-09-06T15:23:40.000Z,30.95
2022-09-06T15:26:06.000Z,29.7
2022-09-06T15:28:33.000Z,30.35
2022-09-06T15:30:58.000Z,29.82
2022-09-06T15:33:25.000Z,29.25
2022-09-06T15:35:51.000Z,29.45
2022-09-06T15:38:17.000Z,28.95
2022-09-06T15:40:43.000Z,28.3
2022-09-06T15:43:08.000Z,28.55
2022-09-06T15:45:37.000Z,28.52
2022-09-06T15:48:00.000Z,28.45
2022-09-06T15:50:26.000Z,29.98
2022-09-06T15:52:52.000Z,28.63
2022-09-06T15:55:19.000Z,28.9
2022-09-06T15:57:44.000Z,29.8
2022-09-06T16:00:15.000Z,28.25
2022-09-06T16:02:37.000Z,29.07
2022-09-06T16:05:02.000Z,29.1
2022-09-06T16:07:27.000Z,29.53
2022-09-06T16:09:54.000Z,28.57
2022-09-06T16:12:20.000Z,28.1
2022-09-06T16:14:45.000Z,27.7
2022-09-06T16:17:12.000Z,27.83
2022-09-06T16:19:39.000Z,28.83
2022-09-06T16:22:04.000Z,28.42
2022-09-06T16:24:30.000Z,30.02
2022-09-06T16:26:56.000Z,30.8
2022-09-06T16:29:20.000Z,31.27
2022-09-06T16:31:47.000Z,30.65
2022-09-06T16:34:13.000Z,30.08
2022-09-06T16:36:39.000Z,29.85
2022-09-06T16:39:05.000Z,28.92
2022-09-06T16:41:30.000Z,30.2
2022-09-06T16:43:57.000Z,30.43
2022-09-06T16:46:23.000Z,29.98
2022-09-06T16:48:48.000Z,30.7
2022-09-06T16:51:14.000Z,31.1
2022-09-06T16:53:39.000Z,31.95
2022-09-06T16:56:07.000Z,31.5
2022-09-06T16:58:31.000Z,31.65
2022-09-06T17:00:56.000Z,31.17
2022-09-06T17:03:22.000Z,31.1
2022-09-06T17:05:48.000Z,32.15
2022-09-06T17:08:17.000Z,31.45
2022-09-06T17:10:40.000Z,31.52
2022-09-06T17:13:07.000Z,30.77
2022-09-06T17:15:42.000Z,31.8
2022-09-06T17:17:57.000Z,30.73
2022-09-06T17:20:23.000Z,30.25
2022-09-06T17:22:49.000Z,29.25
2022-09-06T17:25:15.000Z,28.65
2022-09-06T17:27:40.000Z,28.77
2022-09-06T17:30:09.000Z,28.4
2022-09-06T17:32:33.000Z,27.82
2022-09-06T17:34:58.000Z,29.53
2022-09-06T17:37:23.000Z,28.6
2022-09-06T17:39:51.000Z,28.42
2022-09-06T17:42:16.000Z,28.55
2022-09-06T17:44:41.000Z,28.2
2022-09-06T17:47:10.000Z,28.67
2022-09-06T17:49:33.000Z,28.62
2022-09-06T17:52:00.000Z,29.2
2022-09-06T17:54:24.000Z,28.73
2022-09-06T17:56:51.000Z,29.9
2022-09-06T17:59:16.000Z,29.27
2022-09-06T18:01:42.000Z,29.9
2022-09-06T18:04:07.000Z,29.87
2022-09-06T18:06:33.000Z,30.77
2022-09-06T18:09:03.000Z,30.77
2022-09-06T18:13:56.000Z,31.57
2022-09-06T18:16:19.000Z,31.83
2022-09-06T18:18:45.000Z,32.85
2022-09-06T18:21:11.000Z,34.2
2022-09-06T18:23:37.000Z,33.85
2022-09-06T18:26:06.000Z,36.38
2022-09-06T18:28:29.000Z,36.25
2022-09-06T18:30:55.000Z,36.7
2022-09-06T18:33:21.000Z,36.88
2022-09-06T18:35:47.000Z,37.13
2022-09-06T18:38:13.000Z,36.87
2022-09-06T18:40:39.000Z,36.4
2022-09-06T18:43:04.000Z,37.23
2022-09-06T18:45:31.000Z,37.13
2022-09-06T18:47:56.000Z,36.88
2022-09-06T18:50:22.000Z,36.4
2022-09-06T18:52:48.000Z,36.15
2022-09-06T18:55:13.000Z,36.7
2022-09-06T18:57:39.000Z,36.2
2022-09-06T19:00:12.000Z,36.03
2022-09-06T19:02:32.000Z,34.53
2022-09-06T19:04:56.000Z,34.73
2022-09-06T19:07:23.000Z,34.7
2022-09-06T19:09:48.000Z,33.33
2022-09-06T19:12:14.000Z,34.07
2022-09-06T19:14:41.000Z,32.55
2022-09-06T19:17:06.000Z,32.97
2022-09-06T19:19:32.000Z,31.83
2022-09-06T19:21:57.000Z,33.05
2022-09-06T19:24:24.000Z,32.35
2022-09-06T19:26:50.000Z,31.8
2022-09-06T19:29:17.000Z,31.87
2022-09-06T19:31:42.000Z,31.57
2022-09-06T19:34:08.000Z,32
2022-09-06T19:36:33.000Z,31.75
2022-09-06T19:38:59.000Z,31.6
2022-09-06T19:41:26.000Z,31.02
2022-09-06T19:43:51.000Z,31.05
2022-09-06T19:46:18.000Z,31.3
2022-09-06T19:48:43.000Z,31.5
2022-09-06T19:53:35.000Z,30.3
2022-09-06T19:56:01.000Z,29.92
2022-09-06T19:58:26.000Z,30.48
2022-09-06T20:00:52.000Z,31.23
2022-09-06T20:03:17.000Z,31
2022-09-06T20:05:44.000Z,31.3
2022-09-06T20:08:10.000Z,32.5
2022-09-06T20:10:35.000Z,32.4
2022-09-06T20:13:02.000Z,31.43
2022-09-06T20:15:27.000Z,30.25
2022-09-06T20:17:53.000Z,30.27
2022-09-06T20:20:20.000Z,30.72
2022-09-06T20:22:44.000Z,29.7
2022-09-06T20:25:12.000Z,28.52
2022-09-06T20:27:36.000Z,29.13
2022-09-06T20:30:04.000Z,28.63
2022-09-06T20:32:29.000Z,28.23
2022-09-06T20:34:54.000Z,28.83
2022-09-06T20:37:20.000Z,28.15
2022-09-06T20:39:47.000Z,27.43
2022-09-06T20:42:12.000Z,27.95
2022-09-06T20:44:39.000Z,27.62
2022-09-06T20:47:04.000Z,27.93
2022-09-06T20:49:31.000Z,29.53
2022-09-06T20:51:55.000Z,28.98
2022-09-06T20:54:21.000Z,29.13
2022-09-06T20:56:47.000Z,28.77
2022-09-06T20:59:14.000Z,29.8
2022-09-06T21:01:40.000Z,29.6
2022-09-06T21:04:06.000Z,28.93
2022-09-06T21:06:37.000Z,29.77
2022-09-06T21:08:56.000Z,30.12
2022-09-06T21:11:22.000Z,28.98
2022-09-06T21:13:48.000Z,29.72
2022-09-06T21:16:15.000Z,29.3
2022-09-06T21:18:39.000Z,28.93
2022-09-06T21:21:05.000Z,28.98
2022-09-06T21:23:31.000Z,28.17
2022-09-06T21:25:56.000Z,28.98
2022-09-06T21:28:24.000Z,29.83
2022-09-06T21:33:15.000Z,27.67
2022-09-06T21:35:42.000Z,28.52
2022-09-06T21:38:08.000Z,28.25
2022-09-06T21:40:34.000Z,28.87
2022-09-06T21:42:58.000Z,29.6
2022-09-06T21:45:25.000Z,29.42
2022-09-06T21:47:52.000Z,29.15
2022-09-06T21:50:17.000Z,28.05
2022-09-06T21:52:43.000Z,28.75
2022-09-06T21:55:10.000Z,28.4
2022-09-06T21:57:36.000Z,28.95
2022-09-06T22:00:06.000Z,27.4
2022-09-06T22:02:28.000Z,27.7
2022-09-06T22:04:53.000Z,28.87
2022-09-06T22:07:19.000Z,28.02
2022-09-06T22:09:44.000Z,27.42
2022-09-06T22:12:11.000Z,28.4
2022-09-06T22:14:39.000Z,28.67
2022-09-06T22:17:08.000Z,28.55
2022-09-06T22:19:31.000Z,27.93
2022-09-06T22:21:56.000Z,27.52
2022-09-06T22:24:23.000Z,27.53
2022-09-06T22:26:48.000Z,27.6
2022-09-06T22:29:13.000Z,28.98
2022-09-06T22:31:41.000Z,28.05
2022-09-06T22:34:05.000Z,28.55
2022-09-06T22:36:32.000Z,28.97
2022-09-06T22:38:57.000Z,28.92
2022-09-06T22:41:24.000Z,29.02
2022-09-06T22:43:50.000Z,28.65
2022-09-06T22:46:17.000Z,27.95
2022-09-06T22:48:42.000Z,27.82
2022-09-06T22:51:08.000Z,27.8
2022-09-06T22:53:33.000Z,26.75
2022-09-06T22:55:59.000Z,26.65
2022-09-06T22:58:24.000Z,26.5
2022-09-06T23:00:51.000Z,27.33
2022-09-06T23:03:16.000Z,26.93
2022-09-06T23:05:42.000Z,25.97
2022-09-06T23:08:08.000Z,26.45
2022-09-06T23:10:33.000Z,27.05
2022-09-06T23:12:59.000Z,28.02
2022-09-06T23:15:25.000Z,30.1
2022-09-06T23:17:51.000Z,29.93
2022-09-06T23:20:18.000Z,30.25
2022-09-06T23:22:43.000Z,29.7
2022-09-06T23:25:10.000Z,29.5
2022-09-06T23:27:34.000Z,28.38
2022-09-06T23:30:00.000Z,28.23
2022-09-06T23:32:26.000Z,26.42
2022-09-06T23:34:51.000Z,26.6
2022-09-06T23:37:17.000Z,27.43
2022-09-06T23:39:44.000Z,28.75
2022-09-06T23:42:11.000Z,30.43
2022-09-06T23:44:34.000Z,31.55
2022-09-06T23:47:00.000Z,32.93
2022-09-06T23:49:26.000Z,33.43
2022-09-06T23:51:52.000Z,34.23
2022-09-06T23:54:18.000Z,36.23
2022-09-06T23:56:44.000Z,37.28
